sensor_id;sensor_type;location;lat;lon;timestamp;P1;durP1;ratioP1;P2;durP2;ratioP2
3000;SDS011;1510;51.072;6.678;2022-12-16T00:01:01;370.42;;;344.27;;
3000;SDS011;1510;51.072;6.678;2022-12-16T00:03:29;352.55;;;328.45;;
3000;SDS011;1510;51.072;6.678;2022-12-16T00:05:56;323.77;;;306.10;;
3000;SDS011;1510;51.072;6.678;2022-12-16T00:08:24;321.92;;;303.45;;
3000;SDS011;1510;51.072;6.678;2022-12-16T00:10:55;329.90;;;310.48;;
3000;SDS011;1510;51.072;6.678;2022-12-16T00:13:23;335.58;;;316.92;;
3000;SDS011;1510;51.072;6.678;2022-12-16T00:15:50;342.20;;;321.90;;
3000;SDS011;1510;51.072;6.678;2022-12-16T00:18:17;340.50;;;320.55;;
3000;SDS011;1510;51.072;6.678;2022-12-16T00:20:44;341.38;;;321.23;;
3000;SDS011;1510;51.072;6.678;2022-12-16T00:23:11;355.83;;;334.88;;
3000;SDS011;1510;51.072;6.678;2022-12-16T00:25:41;345.50;;;324.83;;
3000;SDS011;1510;51.072;6.678;2022-12-16T00:28:09;340.48;;;320.45;;
3000;SDS011;1510;51.072;6.678;2022-12-16T00:30:36;327.05;;;308.48;;
3000;SDS011;1510;51.072;6.678;2022-12-16T00:33:03;316.02;;;297.52;;
3000;SDS011;1510;51.072;6.678;2022-12-16T00:35:31;319.50;;;300.98;;
3000;SDS011;1510;51.072;6.678;2022-12-16T00:37:57;301.85;;;286.20;;
3000;SDS011;1510;51.072;6.678;2022-12-16T00:40:24;298.60;;;281.90;;
3000;SDS011;1510;51.072;6.678;2022-12-16T00:42:53;286.23;;;269.80;;
3000;SDS011;1510;51.072;6.678;2022-12-16T00:45:19;285.02;;;269.58;;
3000;SDS011;1510;51.072;6.678;2022-12-16T00:47:47;294.70;;;278.30;;
3000;SDS011;1510;51.072;6.678;2022-12-16T00:50:15;296.02;;;279.60;;
3000;SDS011;1510;51.072;6.678;2022-12-16T00:52:42;287.95;;;273.67;;
3000;SDS011;1510;51.072;6.678;2022-12-16T00:55:09;301.23;;;286.13;;
3000;SDS011;1510;51.072;6.678;2022-12-16T00:57:35;286.42;;;271.25;;
3000;SDS011;1510;51.072;6.678;2022-12-16T01:00:04;290.27;;;275.27;;
3000;SDS011;1510;51.072;6.678;2022-12-16T01:02:33;286.77;;;271.90;;
3000;SDS011;1510;51.072;6.678;2022-12-16T01:04:59;292.08;;;274.52;;
3000;SDS011;1510;51.072;6.678;2022-12-16T01:07:26;274.48;;;260.85;;
3000;SDS011;1510;51.072;6.678;2022-12-16T01:09:53;285.95;;;270.30;;
3000;SDS011;1510;51.072;6.678;2022-12-16T01:12:20;285.67;;;270.33;;
3000;SDS011;1510;51.072;6.678;2022-12-16T01:14:48;300.00;;;285.02;;
3000;SDS011;1510;51.072;6.678;2022-12-16T01:17:16;291.08;;;276.10;;
3000;SDS011;1510;51.072;6.678;2022-12-16T01:19:43;288.90;;;272.85;;
3000;SDS011;1510;51.072;6.678;2022-12-16T01:22:09;285.92;;;271.85;;
3000;SDS011;1510;51.072;6.678;2022-12-16T01:24:38;295.38;;;278.58;;
3000;SDS011;1510;51.072;6.678;2022-12-16T01:27:05;278.25;;;263.45;;
3000;SDS011;1510;51.072;6.678;2022-12-16T01:29:31;294.15;;;278.30;;
3000;SDS011;1510;51.072;6.678;2022-12-16T01:31:58;314.27;;;296.05;;
3000;SDS011;1510;51.072;6.678;2022-12-16T01:34:26;308.88;;;292.20;;
3000;SDS011;1510;51.072;6.678;2022-12-16T01:36:53;310.48;;;291.40;;
3000;SDS011;1510;51.072;6.678;2022-12-16T01:39:19;321.25;;;305.33;;
3000;SDS011;1510;51.072;6.678;2022-12-16T01:41:46;309.67;;;293.77;;
3000;SDS011;1510;51.072;6.678;2022-12-16T01:44:14;313.13;;;296.00;;
3000;SDS011;1510;51.072;6.678;2022-12-16T01:46:41;302.35;;;286.60;;
3000;SDS011;1510;51.072;6.678;2022-12-16T01:49:11;293.10;;;277.85;;
3000;SDS011;1510;51.072;6.678;2022-12-16T01:51:46;294.77;;;278.92;;
3000;SDS011;1510;51.072;6.678;2022-12-16T01:54:14;297.45;;;281.58;;
3000;SDS011;1510;51.072;6.678;2022-12-16T01:56:45;301.75;;;285.63;;
3000;SDS011;1510;51.072;6.678;2022-12-16T01:59:16;295.15;;;278.75;;
3000;SDS011;1510;51.072;6.678;2022-12-16T02:01:44;289.02;;;273.45;;
3000;SDS011;1510;51.072;6.678;2022-12-16T02:04:11;276.83;;;261.50;;
3000;SDS011;1510;51.072;6.678;2022-12-16T02:06:38;281.77;;;264.85;;
3000;SDS011;1510;51.072;6.678;2022-12-16T02:09:06;276.95;;;262.00;;
3000;SDS011;1510;51.072;6.678;2022-12-16T02:11:41;270.58;;;256.70;;
3000;SDS011;1510;51.072;6.678;2022-12-16T02:14:30;271.35;;;256.55;;
3000;SDS011;1510;51.072;6.678;2022-12-16T02:17:11;264.42;;;251.40;;
3000;SDS011;1510;51.072;6.678;2022-12-16T02:19:58;262.98;;;249.10;;
3000;SDS011;1510;51.072;6.678;2022-12-16T02:22:37;256.10;;;242.48;;
3000;SDS011;1510;51.072;6.678;2022-12-16T02:25:26;239.18;;;226.80;;
3000;SDS011;1510;51.072;6.678;2022-12-16T02:28:05;240.85;;;225.30;;
3000;SDS011;1510;51.072;6.678;2022-12-16T02:30:48;242.18;;;228.52;;
3000;SDS011;1510;51.072;6.678;2022-12-16T02:33:24;260.77;;;245.57;;
3000;SDS011;1510;51.072;6.678;2022-12-16T02:36:01;258.38;;;245.38;;
3000;SDS011;1510;51.072;6.678;2022-12-16T02:38:38;249.57;;;236.48;;
3000;SDS011;1510;51.072;6.678;2022-12-16T02:41:11;294.90;;;277.42;;
3000;SDS011;1510;51.072;6.678;2022-12-16T02:43:47;293.63;;;275.38;;
3000;SDS011;1510;51.072;6.678;2022-12-16T02:46:20;275.10;;;260.45;;
3000;SDS011;1510;51.072;6.678;2022-12-16T02:48:49;274.75;;;259.85;;
3000;SDS011;1510;51.072;6.678;2022-12-16T02:51:15;261.08;;;247.48;;
3000;SDS011;1510;51.072;6.678;2022-12-16T02:53:43;254.95;;;240.90;;
3000;SDS011;1510;51.072;6.678;2022-12-16T02:56:14;247.43;;;233.68;;
3000;SDS011;1510;51.072;6.678;2022-12-16T02:58:49;249.18;;;236.82;;
3000;SDS011;1510;51.072;6.678;2022-12-16T03:01:25;260.55;;;245.20;;
3000;SDS011;1510;51.072;6.678;2022-12-16T03:03:59;253.20;;;238.57;;
3000;SDS011;1510;51.072;6.678;2022-12-16T03:06:30;251.50;;;237.13;;
3000;SDS011;1510;51.072;6.678;2022-12-16T03:08:58;241.35;;;229.20;;
3000;SDS011;1510;51.072;6.678;2022-12-16T03:11:28;233.90;;;221.68;;
3000;SDS011;1510;51.072;6.678;2022-12-16T03:13:56;241.50;;;227.18;;
3000;SDS011;1510;51.072;6.678;2022-12-16T03:16:26;267.27;;;252.15;;
3000;SDS011;1510;51.072;6.678;2022-12-16T03:18:57;248.50;;;234.38;;
3000;SDS011;1510;51.072;6.678;2022-12-16T03:21:28;264.23;;;249.93;;
3000;SDS011;1510;51.072;6.678;2022-12-16T03:23:57;278.55;;;262.50;;
3000;SDS011;1510;51.072;6.678;2022-12-16T03:26:28;265.92;;;252.23;;
3000;SDS011;1510;51.072;6.678;2022-12-16T03:28:59;279.30;;;264.25;;
3000;SDS011;1510;51.072;6.678;2022-12-16T03:31:32;273.25;;;258.90;;
3000;SDS011;1510;51.072;6.678;2022-12-16T03:34:06;269.30;;;254.85;;
3000;SDS011;1510;51.072;6.678;2022-12-16T03:36:40;276.40;;;261.75;;
3000;SDS011;1510;51.072;6.678;2022-12-16T03:39:14;273.80;;;257.65;;
3000;SDS011;1510;51.072;6.678;2022-12-16T03:41:43;266.83;;;251.43;;
3000;SDS011;1510;51.072;6.678;2022-12-16T03:44:12;244.18;;;229.48;;
3000;SDS011;1510;51.072;6.678;2022-12-16T03:46:40;256.05;;;240.98;;
3000;SDS011;1510;51.072;6.678;2022-12-16T03:49:07;253.13;;;238.98;;
3000;SDS011;1510;51.072;6.678;2022-12-16T03:51:34;244.77;;;229.75;;
3000;SDS011;1510;51.072;6.678;2022-12-16T03:54:00;249.60;;;234.50;;
3000;SDS011;1510;51.072;6.678;2022-12-16T03:56:27;247.05;;;233.20;;
3000;SDS011;1510;51.072;6.678;2022-12-16T03:58:54;242.32;;;227.07;;
3000;SDS011;1510;51.072;6.678;2022-12-16T04:01:20;229.27;;;216.68;;
3000;SDS011;1510;51.072;6.678;2022-12-16T04:03:49;240.30;;;228.35;;
3000;SDS011;1510;51.072;6.678;2022-12-16T04:06:16;238.93;;;226.98;;
3000;SDS011;1510;51.072;6.678;2022-12-16T04:08:43;264.75;;;249.70;;
3000;SDS011;1510;51.072;6.678;2022-12-16T04:11:10;263.95;;;247.38;;
3000;SDS011;1510;51.072;6.678;2022-12-16T04:13:54;234.27;;;221.77;;
3000;SDS011;1510;51.072;6.678;2022-12-16T04:16:39;223.85;;;212.90;;
3000;SDS011;1510;51.072;6.678;2022-12-16T04:19:24;225.45;;;213.55;;
3000;SDS011;1510;51.072;6.678;2022-12-16T04:22:10;222.38;;;207.98;;
3000;SDS011;1510;51.072;6.678;2022-12-16T04:24:57;219.38;;;206.00;;
3000;SDS011;1510;51.072;6.678;2022-12-16T04:27:27;219.50;;;205.80;;
3000;SDS011;1510;51.072;6.678;2022-12-16T04:29:53;216.77;;;204.63;;
3000;SDS011;1510;51.072;6.678;2022-12-16T04:32:38;227.77;;;215.40;;
3000;SDS011;1510;51.072;6.678;2022-12-16T04:35:24;221.90;;;209.50;;
3000;SDS011;1510;51.072;6.678;2022-12-16T04:38:08;214.95;;;203.20;;
3000;SDS011;1510;51.072;6.678;2022-12-16T04:40:53;210.18;;;198.70;;
3000;SDS011;1510;51.072;6.678;2022-12-16T04:43:37;201.82;;;191.75;;
3000;SDS011;1510;51.072;6.678;2022-12-16T04:46:21;213.38;;;200.80;;
3000;SDS011;1510;51.072;6.678;2022-12-16T04:49:05;199.10;;;187.05;;
3000;SDS011;1510;51.072;6.678;2022-12-16T04:51:51;191.02;;;179.63;;
3000;SDS011;1510;51.072;6.678;2022-12-16T04:54:35;199.85;;;188.60;;
3000;SDS011;1510;51.072;6.678;2022-12-16T04:57:19;195.55;;;181.95;;
3000;SDS011;1510;51.072;6.678;2022-12-16T05:00:03;206.55;;;193.75;;
3000;SDS011;1510;51.072;6.678;2022-12-16T05:02:50;267.60;;;247.35;;
3000;SDS011;1510;51.072;6.678;2022-12-16T05:05:35;215.65;;;203.55;;
3000;SDS011;1510;51.072;6.678;2022-12-16T05:08:20;217.55;;;205.02;;
3000;SDS011;1510;51.072;6.678;2022-12-16T05:11:05;225.38;;;211.23;;
3000;SDS011;1510;51.072;6.678;2022-12-16T05:13:49;234.35;;;222.13;;
3000;SDS011;1510;51.072;6.678;2022-12-16T05:16:30;207.02;;;196.77;;
3000;SDS011;1510;51.072;6.678;2022-12-16T05:19:14;212.70;;;201.23;;
3000;SDS011;1510;51.072;6.678;2022-12-16T05:21:58;220.15;;;206.93;;
3000;SDS011;1510;51.072;6.678;2022-12-16T05:24:44;222.77;;;210.93;;
3000;SDS011;1510;51.072;6.678;2022-12-16T05:27:28;209.90;;;198.68;;
3000;SDS011;1510;51.072;6.678;2022-12-16T05:30:12;203.70;;;192.45;;
3000;SDS011;1510;51.072;6.678;2022-12-16T05:32:56;205.52;;;193.57;;
3000;SDS011;1510;51.072;6.678;2022-12-16T05:35:41;193.98;;;182.88;;
3000;SDS011;1510;51.072;6.678;2022-12-16T05:38:25;186.98;;;174.30;;
3000;SDS011;1510;51.072;6.678;2022-12-16T05:41:10;189.02;;;177.70;;
3000;SDS011;1510;51.072;6.678;2022-12-16T05:43:54;188.43;;;178.13;;
3000;SDS011;1510;51.072;6.678;2022-12-16T05:46:38;165.98;;;155.75;;
3000;SDS011;1510;51.072;6.678;2022-12-16T05:49:22;174.70;;;164.43;;
3000;SDS011;1510;51.072;6.678;2022-12-16T05:52:07;175.43;;;165.20;;
3000;SDS011;1510;51.072;6.678;2022-12-16T05:54:51;163.70;;;154.68;;
3000;SDS011;1510;51.072;6.678;2022-12-16T05:57:36;146.50;;;138.88;;
3000;SDS011;1510;51.072;6.678;2022-12-16T06:00:21;159.00;;;150.90;;
3000;SDS011;1510;51.072;6.678;2022-12-16T06:03:05;130.68;;;124.00;;
3000;SDS011;1510;51.072;6.678;2022-12-16T06:05:50;158.98;;;151.75;;
3000;SDS011;1510;51.072;6.678;2022-12-16T06:08:34;141.02;;;134.25;;
3000;SDS011;1510;51.072;6.678;2022-12-16T06:11:21;176.95;;;167.25;;
3000;SDS011;1510;51.072;6.678;2022-12-16T06:14:08;184.40;;;172.75;;
3000;SDS011;1510;51.072;6.678;2022-12-16T06:16:52;204.77;;;192.93;;
3000;SDS011;1510;51.072;6.678;2022-12-16T06:19:37;178.57;;;168.32;;
3000;SDS011;1510;51.072;6.678;2022-12-16T06:22:21;167.18;;;157.13;;
3000;SDS011;1510;51.072;6.678;2022-12-16T06:25:05;174.23;;;160.63;;
3000;SDS011;1510;51.072;6.678;2022-12-16T06:27:50;158.63;;;149.80;;
3000;SDS011;1510;51.072;6.678;2022-12-16T06:30:36;151.70;;;143.18;;
3000;SDS011;1510;51.072;6.678;2022-12-16T06:33:21;166.77;;;154.80;;
3000;SDS011;1510;51.072;6.678;2022-12-16T06:36:07;151.05;;;140.38;;
3000;SDS011;1510;51.072;6.678;2022-12-16T06:38:51;140.43;;;132.63;;
3000;SDS011;1510;51.072;6.678;2022-12-16T06:41:35;135.70;;;126.60;;
3000;SDS011;1510;51.072;6.678;2022-12-16T06:44:20;139.68;;;128.88;;
3000;SDS011;1510;51.072;6.678;2022-12-16T06:47:05;137.90;;;128.35;;
3000;SDS011;1510;51.072;6.678;2022-12-16T06:49:48;131.88;;;123.38;;
3000;SDS011;1510;51.072;6.678;2022-12-16T06:52:32;123.80;;;116.38;;
3000;SDS011;1510;51.072;6.678;2022-12-16T06:55:16;138.90;;;129.95;;
3000;SDS011;1510;51.072;6.678;2022-12-16T06:58:00;157.48;;;146.40;;
3000;SDS011;1510;51.072;6.678;2022-12-16T07:00:45;149.35;;;140.68;;
3000;SDS011;1510;51.072;6.678;2022-12-16T07:03:30;158.40;;;147.80;;
3000;SDS011;1510;51.072;6.678;2022-12-16T07:06:15;171.13;;;161.15;;
3000;SDS011;1510;51.072;6.678;2022-12-16T07:08:59;172.65;;;163.30;;
3000;SDS011;1510;51.072;6.678;2022-12-16T07:11:44;171.20;;;162.30;;
3000;SDS011;1510;51.072;6.678;2022-12-16T07:14:28;174.10;;;164.65;;
3000;SDS011;1510;51.072;6.678;2022-12-16T07:17:12;171.77;;;162.48;;
3000;SDS011;1510;51.072;6.678;2022-12-16T07:19:57;187.82;;;176.48;;
3000;SDS011;1510;51.072;6.678;2022-12-16T07:22:41;187.93;;;175.68;;
3000;SDS011;1510;51.072;6.678;2022-12-16T07:25:26;185.35;;;173.25;;
3000;SDS011;1510;51.072;6.678;2022-12-16T07:28:10;165.73;;;155.13;;
3000;SDS011;1510;51.072;6.678;2022-12-16T07:30:54;178.93;;;168.57;;
3000;SDS011;1510;51.072;6.678;2022-12-16T07:33:38;216.48;;;204.68;;
3000;SDS011;1510;51.072;6.678;2022-12-16T07:36:23;196.63;;;184.95;;
3000;SDS011;1510;51.072;6.678;2022-12-16T07:39:08;208.55;;;197.68;;
3000;SDS011;1510;51.072;6.678;2022-12-16T07:42:00;212.40;;;200.45;;
3000;SDS011;1510;51.072;6.678;2022-12-16T07:44:44;219.98;;;208.07;;
3000;SDS011;1510;51.072;6.678;2022-12-16T07:47:29;216.98;;;206.27;;
3000;SDS011;1510;51.072;6.678;2022-12-16T07:50:24;228.15;;;214.98;;
3000;SDS011;1510;51.072;6.678;2022-12-16T07:53:10;243.70;;;231.88;;
3000;SDS011;1510;51.072;6.678;2022-12-16T07:55:54;234.18;;;219.88;;
3000;SDS011;1510;51.072;6.678;2022-12-16T07:58:38;245.75;;;231.52;;
3000;SDS011;1510;51.072;6.678;2022-12-16T08:01:22;248.00;;;233.75;;
3000;SDS011;1510;51.072;6.678;2022-12-16T08:04:06;246.07;;;233.10;;
3000;SDS011;1510;51.072;6.678;2022-12-16T08:06:51;259.42;;;245.82;;
3000;SDS011;1510;51.072;6.678;2022-12-16T08:09:36;244.50;;;232.55;;
3000;SDS011;1510;51.072;6.678;2022-12-16T08:12:20;269.45;;;255.57;;
3000;SDS011;1510;51.072;6.678;2022-12-16T08:15:05;262.42;;;248.25;;
3000;SDS011;1510;51.072;6.678;2022-12-16T08:17:51;274.33;;;258.92;;
3000;SDS011;1510;51.072;6.678;2022-12-16T08:20:35;298.77;;;282.88;;
3000;SDS011;1510;51.072;6.678;2022-12-16T08:23:20;297.55;;;282.27;;
3000;SDS011;1510;51.072;6.678;2022-12-16T08:26:05;311.85;;;293.95;;
3000;SDS011;1510;51.072;6.678;2022-12-16T08:28:50;316.45;;;299.67;;
3000;SDS011;1510;51.072;6.678;2022-12-16T08:31:34;324.35;;;308.52;;
3000;SDS011;1510;51.072;6.678;2022-12-16T08:34:18;328.65;;;312.67;;
3000;SDS011;1510;51.072;6.678;2022-12-16T08:37:02;343.02;;;325.55;;
3000;SDS011;1510;51.072;6.678;2022-12-16T08:39:46;352.55;;;334.38;;
3000;SDS011;1510;51.072;6.678;2022-12-16T08:42:32;369.27;;;350.48;;
3000;SDS011;1510;51.072;6.678;2022-12-16T08:45:17;391.70;;;370.27;;
3000;SDS011;1510;51.072;6.678;2022-12-16T08:48:01;451.70;;;422.50;;
3000;SDS011;1510;51.072;6.678;2022-12-16T08:50:46;443.30;;;419.95;;
3000;SDS011;1510;51.072;6.678;2022-12-16T08:53:30;462.85;;;439.35;;
3000;SDS011;1510;51.072;6.678;2022-12-16T08:56:14;473.05;;;449.52;;
3000;SDS011;1510;51.072;6.678;2022-12-16T08:59:00;474.30;;;450.00;;
3000;SDS011;1510;51.072;6.678;2022-12-16T09:01:45;470.70;;;447.25;;
3000;SDS011;1510;51.072;6.678;2022-12-16T09:04:29;484.42;;;458.73;;
3000;SDS011;1510;51.072;6.678;2022-12-16T09:07:13;501.77;;;475.90;;
3000;SDS011;1510;51.072;6.678;2022-12-16T09:09:57;516.10;;;488.33;;
3000;SDS011;1510;51.072;6.678;2022-12-16T09:12:42;522.20;;;491.95;;
3000;SDS011;1510;51.072;6.678;2022-12-16T09:15:27;528.45;;;499.90;;
3000;SDS011;1510;51.072;6.678;2022-12-16T09:18:11;530.20;;;501.38;;
3000;SDS011;1510;51.072;6.678;2022-12-16T09:20:56;558.22;;;526.65;;
3000;SDS011;1510;51.072;6.678;2022-12-16T09:23:41;583.20;;;549.95;;
3000;SDS011;1510;51.072;6.678;2022-12-16T09:26:25;591.30;;;557.45;;
3000;SDS011;1510;51.072;6.678;2022-12-16T09:29:09;595.85;;;563.40;;
3000;SDS011;1510;51.072;6.678;2022-12-16T09:32:09;635.05;;;596.63;;
3000;SDS011;1510;51.072;6.678;2022-12-16T09:34:53;641.35;;;603.30;;
3000;SDS011;1510;51.072;6.678;2022-12-16T09:37:37;684.35;;;639.05;;
3000;SDS011;1510;51.072;6.678;2022-12-16T09:40:28;697.05;;;653.17;;
3000;SDS011;1510;51.072;6.678;2022-12-16T09:43:19;712.15;;;666.28;;
3000;SDS011;1510;51.072;6.678;2022-12-16T09:46:17;734.90;;;683.05;;
3000;SDS011;1510;51.072;6.678;2022-12-16T09:49:10;737.25;;;685.38;;
3000;SDS011;1510;51.072;6.678;2022-12-16T09:52:00;735.28;;;683.20;;
3000;SDS011;1510;51.072;6.678;2022-12-16T09:54:46;740.92;;;686.28;;
3000;SDS011;1510;51.072;6.678;2022-12-16T09:57:31;740.75;;;686.95;;
3000;SDS011;1510;51.072;6.678;2022-12-16T10:00:19;739.33;;;684.42;;
3000;SDS011;1510;51.072;6.678;2022-12-16T10:03:07;747.80;;;693.20;;
3000;SDS011;1510;51.072;6.678;2022-12-16T10:06:02;741.05;;;687.95;;
3000;SDS011;1510;51.072;6.678;2022-12-16T10:08:52;726.35;;;673.33;;
3000;SDS011;1510;51.072;6.678;2022-12-16T10:11:43;735.10;;;682.65;;
3000;SDS011;1510;51.072;6.678;2022-12-16T10:14:37;658.72;;;614.67;;
3000;SDS011;1510;51.072;6.678;2022-12-16T10:17:26;724.67;;;675.10;;
3000;SDS011;1510;51.072;6.678;2022-12-16T10:20:11;739.65;;;689.78;;
3000;SDS011;1510;51.072;6.678;2022-12-16T10:23:09;752.25;;;697.22;;
3000;SDS011;1510;51.072;6.678;2022-12-16T10:26:01;749.20;;;694.43;;
3000;SDS011;1510;51.072;6.678;2022-12-16T10:28:51;740.15;;;688.88;;
3000;SDS011;1510;51.072;6.678;2022-12-16T10:31:39;741.97;;;688.20;;
3000;SDS011;1510;51.072;6.678;2022-12-16T10:34:20;732.33;;;683.20;;
3000;SDS011;1510;51.072;6.678;2022-12-16T10:37:10;754.67;;;702.20;;
3000;SDS011;1510;51.072;6.678;2022-12-16T10:40:00;743.33;;;689.70;;
3000;SDS011;1510;51.072;6.678;2022-12-16T10:42:46;742.30;;;686.27;;
3000;SDS011;1510;51.072;6.678;2022-12-16T10:45:34;740.35;;;687.70;;
3000;SDS011;1510;51.072;6.678;2022-12-16T10:48:22;741.22;;;685.60;;
3000;SDS011;1510;51.072;6.678;2022-12-16T10:51:10;730.80;;;677.45;;
3000;SDS011;1510;51.072;6.678;2022-12-16T10:53:58;743.60;;;689.15;;
3000;SDS011;1510;51.072;6.678;2022-12-16T10:56:59;741.03;;;684.33;;
3000;SDS011;1510;51.072;6.678;2022-12-16T10:59:52;740.97;;;682.77;;
3000;SDS011;1510;51.072;6.678;2022-12-16T11:02:51;740.53;;;677.97;;
3000;SDS011;1510;51.072;6.678;2022-12-16T11:05:35;740.50;;;680.83;;
3000;SDS011;1510;51.072;6.678;2022-12-16T11:08:22;745.93;;;687.27;;
3000;SDS011;1510;51.072;6.678;2022-12-16T11:11:17;717.57;;;668.63;;
3000;SDS011;1510;51.072;6.678;2022-12-16T11:17:12;739.30;;;679.50;;
3000;SDS011;1510;51.072;6.678;2022-12-16T11:20:05;720.13;;;671.20;;
3000;SDS011;1510;51.072;6.678;2022-12-16T11:23:07;739.17;;;681.90;;
3000;SDS011;1510;51.072;6.678;2022-12-16T11:26:03;718.50;;;664.53;;
3000;SDS011;1510;51.072;6.678;2022-12-16T11:29:00;725.07;;;672.83;;
3000;SDS011;1510;51.072;6.678;2022-12-16T11:32:05;724.05;;;672.65;;
3000;SDS011;1510;51.072;6.678;2022-12-16T11:35:09;722.27;;;673.10;;
3000;SDS011;1510;51.072;6.678;2022-12-16T11:37:55;730.30;;;679.10;;
3000;SDS011;1510;51.072;6.678;2022-12-16T11:40:42;727.13;;;672.63;;
3000;SDS011;1510;51.072;6.678;2022-12-16T11:43:26;722.63;;;672.07;;
3000;SDS011;1510;51.072;6.678;2022-12-16T11:46:14;730.13;;;678.60;;
3000;SDS011;1510;51.072;6.678;2022-12-16T11:49:05;725.40;;;667.35;;
3000;SDS011;1510;51.072;6.678;2022-12-16T11:51:56;754.07;;;687.10;;
3000;SDS011;1510;51.072;6.678;2022-12-16T11:54:59;760.43;;;695.67;;
3000;SDS011;1510;51.072;6.678;2022-12-16T11:57:49;749.07;;;683.37;;
3000;SDS011;1510;51.072;6.678;2022-12-16T12:00:45;749.63;;;687.43;;
3000;SDS011;1510;51.072;6.678;2022-12-16T12:03:38;749.20;;;684.43;;
3000;SDS011;1510;51.072;6.678;2022-12-16T12:06:29;733.07;;;670.40;;
3000;SDS011;1510;51.072;6.678;2022-12-16T12:09:19;733.33;;;674.07;;
3000;SDS011;1510;51.072;6.678;2022-12-16T12:12:07;726.00;;;665.10;;
3000;SDS011;1510;51.072;6.678;2022-12-16T12:15:00;723.40;;;661.63;;
3000;SDS011;1510;51.072;6.678;2022-12-16T12:18:11;728.27;;;664.00;;
3000;SDS011;1510;51.072;6.678;2022-12-16T12:21:02;724.63;;;665.37;;
3000;SDS011;1510;51.072;6.678;2022-12-16T12:23:55;717.70;;;656.85;;
3000;SDS011;1510;51.072;6.678;2022-12-16T12:26:47;730.57;;;667.07;;
3000;SDS011;1510;51.072;6.678;2022-12-16T12:29:40;725.77;;;661.37;;
3000;SDS011;1510;51.072;6.678;2022-12-16T12:32:34;731.33;;;658.67;;
3000;SDS011;1510;51.072;6.678;2022-12-16T12:35:31;717.97;;;655.23;;
3000;SDS011;1510;51.072;6.678;2022-12-16T12:38:32;729.07;;;659.90;;
3000;SDS011;1510;51.072;6.678;2022-12-16T12:41:24;717.43;;;653.03;;
3000;SDS011;1510;51.072;6.678;2022-12-16T12:44:10;708.30;;;655.03;;
3000;SDS011;1510;51.072;6.678;2022-12-16T12:47:01;732.90;;;677.10;;
3000;SDS011;1510;51.072;6.678;2022-12-16T12:49:52;746.80;;;678.33;;
3000;SDS011;1510;51.072;6.678;2022-12-16T12:52:46;750.97;;;687.20;;
3000;SDS011;1510;51.072;6.678;2022-12-16T12:55:50;759.07;;;688.07;;
3000;SDS011;1510;51.072;6.678;2022-12-16T12:58:47;739.33;;;674.23;;
3000;SDS011;1510;51.072;6.678;2022-12-16T13:01:34;732.10;;;668.00;;
3000;SDS011;1510;51.072;6.678;2022-12-16T13:04:22;729.07;;;665.23;;
3000;SDS011;1510;51.072;6.678;2022-12-16T13:07:08;712.23;;;654.53;;
3000;SDS011;1510;51.072;6.678;2022-12-16T13:19:56;721.03;;;664.93;;
3000;SDS011;1510;51.072;6.678;2022-12-16T13:22:40;739.30;;;669.70;;
3000;SDS011;1510;51.072;6.678;2022-12-16T13:25:36;730.25;;;671.30;;
3000;SDS011;1510;51.072;6.678;2022-12-16T13:28:26;730.90;;;668.43;;
3000;SDS011;1510;51.072;6.678;2022-12-16T13:31:13;735.90;;;670.23;;
3000;SDS011;1510;51.072;6.678;2022-12-16T13:34:02;731.50;;;669.45;;
3000;SDS011;1510;51.072;6.678;2022-12-16T13:36:56;723.93;;;661.67;;
3000;SDS011;1510;51.072;6.678;2022-12-16T13:39:42;733.27;;;671.37;;
3000;SDS011;1510;51.072;6.678;2022-12-16T13:42:51;729.63;;;668.20;;
3000;SDS011;1510;51.072;6.678;2022-12-16T13:45:37;743.30;;;673.53;;
3000;SDS011;1510;51.072;6.678;2022-12-16T13:48:26;743.00;;;679.10;;
3000;SDS011;1510;51.072;6.678;2022-12-16T13:54:52;750.33;;;687.57;;
3000;SDS011;1510;51.072;6.678;2022-12-16T13:57:41;749.83;;;682.67;;
3000;SDS011;1510;51.072;6.678;2022-12-16T14:00:35;738.65;;;670.65;;
3000;SDS011;1510;51.072;6.678;2022-12-16T14:03:22;740.13;;;683.03;;
3000;SDS011;1510;51.072;6.678;2022-12-16T14:06:21;759.90;;;692.38;;
3000;SDS011;1510;51.072;6.678;2022-12-16T14:09:11;748.42;;;679.47;;
3000;SDS011;1510;51.072;6.678;2022-12-16T14:12:10;747.10;;;675.17;;
3000;SDS011;1510;51.072;6.678;2022-12-16T14:15:00;753.38;;;678.95;;
3000;SDS011;1510;51.072;6.678;2022-12-16T14:17:51;745.40;;;678.75;;
3000;SDS011;1510;51.072;6.678;2022-12-16T14:20:41;729.30;;;662.67;;
3000;SDS011;1510;51.072;6.678;2022-12-16T14:23:43;743.28;;;669.65;;
3000;SDS011;1510;51.072;6.678;2022-12-16T14:26:33;759.83;;;686.10;;
3000;SDS011;1510;51.072;6.678;2022-12-16T14:29:20;736.60;;;667.20;;
3000;SDS011;1510;51.072;6.678;2022-12-16T14:32:18;752.43;;;678.17;;
3000;SDS011;1510;51.072;6.678;2022-12-16T14:35:10;730.43;;;661.33;;
3000;SDS011;1510;51.072;6.678;2022-12-16T14:37:57;724.17;;;652.33;;
3000;SDS011;1510;51.072;6.678;2022-12-16T14:40:55;733.50;;;664.90;;
3000;SDS011;1510;51.072;6.678;2022-12-16T14:43:39;740.22;;;666.92;;
3000;SDS011;1510;51.072;6.678;2022-12-16T14:46:28;742.50;;;667.07;;
3000;SDS011;1510;51.072;6.678;2022-12-16T14:49:16;739.87;;;669.20;;
3000;SDS011;1510;51.072;6.678;2022-12-16T14:52:11;757.10;;;683.60;;
3000;SDS011;1510;51.072;6.678;2022-12-16T14:54:59;758.00;;;686.13;;
3000;SDS011;1510;51.072;6.678;2022-12-16T14:58:03;752.72;;;679.13;;
3000;SDS011;1510;51.072;6.678;2022-12-16T15:00:51;760.40;;;687.97;;
3000;SDS011;1510;51.072;6.678;2022-12-16T15:03:38;766.22;;;695.10;;
3000;SDS011;1510;51.072;6.678;2022-12-16T15:06:26;764.37;;;694.07;;
3000;SDS011;1510;51.072;6.678;2022-12-16T15:09:16;765.20;;;694.87;;
3000;SDS011;1510;51.072;6.678;2022-12-16T15:12:04;760.72;;;690.80;;
3000;SDS011;1510;51.072;6.678;2022-12-16T15:14:50;747.85;;;676.58;;
3000;SDS011;1510;51.072;6.678;2022-12-16T15:17:40;753.53;;;682.53;;
3000;SDS011;1510;51.072;6.678;2022-12-16T15:20:32;758.10;;;685.78;;
3000;SDS011;1510;51.072;6.678;2022-12-16T15:23:20;769.93;;;694.53;;
3000;SDS011;1510;51.072;6.678;2022-12-16T15:26:06;763.40;;;693.43;;
3000;SDS011;1510;51.072;6.678;2022-12-16T15:28:51;767.60;;;691.43;;
3000;SDS011;1510;51.072;6.678;2022-12-16T15:31:37;754.83;;;689.37;;
3000;SDS011;1510;51.072;6.678;2022-12-16T15:34:27;763.87;;;692.07;;
3000;SDS011;1510;51.072;6.678;2022-12-16T15:37:19;757.23;;;685.57;;
3000;SDS011;1510;51.072;6.678;2022-12-16T15:40:17;752.13;;;683.33;;
3000;SDS011;1510;51.072;6.678;2022-12-16T15:43:18;753.60;;;682.40;;
3000;SDS011;1510;51.072;6.678;2022-12-16T15:46:04;741.28;;;674.70;;
3000;SDS011;1510;51.072;6.678;2022-12-16T15:48:49;751.83;;;686.60;;
3000;SDS011;1510;51.072;6.678;2022-12-16T15:51:41;742.77;;;675.47;;
3000;SDS011;1510;51.072;6.678;2022-12-16T15:54:28;741.03;;;677.80;;
3000;SDS011;1510;51.072;6.678;2022-12-16T15:57:23;739.55;;;671.67;;
3000;SDS011;1510;51.072;6.678;2022-12-16T16:00:19;728.00;;;661.37;;
3000;SDS011;1510;51.072;6.678;2022-12-16T16:03:29;739.37;;;668.17;;
3000;SDS011;1510;51.072;6.678;2022-12-16T16:06:16;729.77;;;660.00;;
3000;SDS011;1510;51.072;6.678;2022-12-16T16:09:10;730.67;;;665.57;;